Alcalde, New Mexico
Current Conditions -  °F | °C
As of 5:15 AM on Sunday 25 Jan 2015 (Local Time) from KLAM Reporting Station
Clear Clear  
Wind Chill: -2°   Ceiling: Unl
Heat Index:   Visibility: 10mi
Dew Point: -11°   Wind: 12mph
Humidity: 37%   Direction: 320°NW
Pressure: 30.25"   Gusts: NA
Location:  36.09°N, 106.06°W
Report Text: KLAM 251215Z AUTO 32010KT 10SM CLR 03/M11 A3025 RMK AO2 T00261108
Loading
Personal Weather Stations






























Interactive Weather Map New forecast layout! Learn more

10-Day Weather Forecast

Advertisements
Track Severe Weather on mobile